sensor_id;sensor_type;location;lat;lon;timestamp;P1;durP1;ratioP1;P2;durP2;ratioP2
10535;SDS011;5316;49.538;8.352;2024-03-02T00:01:30;12.93;;;10.67;;
10535;SDS011;5316;49.538;8.352;2024-03-02T00:03:57;13.43;;;10.60;;
10535;SDS011;5316;49.538;8.352;2024-03-02T00:06:24;12.07;;;10.43;;
10535;SDS011;5316;49.538;8.352;2024-03-02T00:08:52;14.97;;;11.60;;
10535;SDS011;5316;49.538;8.352;2024-03-02T00:11:23;13.27;;;11.20;;
10535;SDS011;5316;49.538;8.352;2024-03-02T00:13:52;14.17;;;11.60;;
10535;SDS011;5316;49.538;8.352;2024-03-02T00:16:19;15.47;;;11.87;;
10535;SDS011;5316;49.538;8.352;2024-03-02T00:18:45;15.70;;;11.50;;
10535;SDS011;5316;49.538;8.352;2024-03-02T00:21:12;12.53;;;10.83;;
10535;SDS011;5316;49.538;8.352;2024-03-02T00:23:41;14.17;;;11.00;;
10535;SDS011;5316;49.538;8.352;2024-03-02T00:26:09;12.80;;;10.70;;
10535;SDS011;5316;49.538;8.352;2024-03-02T00:28:38;14.00;;;11.73;;
10535;SDS011;5316;49.538;8.352;2024-03-02T00:31:08;12.23;;;10.90;;
10535;SDS011;5316;49.538;8.352;2024-03-02T00:33:37;12.97;;;11.03;;
10535;SDS011;5316;49.538;8.352;2024-03-02T00:36:07;12.83;;;11.07;;
10535;SDS011;5316;49.538;8.352;2024-03-02T00:38:34;13.40;;;11.57;;
10535;SDS011;5316;49.538;8.352;2024-03-02T00:41:14;14.87;;;11.70;;
10535;SDS011;5316;49.538;8.352;2024-03-02T00:43:43;16.00;;;11.97;;
10535;SDS011;5316;49.538;8.352;2024-03-02T00:46:15;14.13;;;11.80;;
10535;SDS011;5316;49.538;8.352;2024-03-02T00:48:47;14.23;;;11.83;;
10535;SDS011;5316;49.538;8.352;2024-03-02T00:51:17;16.97;;;11.83;;
10535;SDS011;5316;49.538;8.352;2024-03-02T00:53:44;16.20;;;12.80;;
10535;SDS011;5316;49.538;8.352;2024-03-02T00:56:12;15.67;;;12.73;;
10535;SDS011;5316;49.538;8.352;2024-03-02T00:58:39;13.93;;;11.50;;
10535;SDS011;5316;49.538;8.352;2024-03-02T01:01:06;17.83;;;13.63;;
10535;SDS011;5316;49.538;8.352;2024-03-02T01:03:33;15.37;;;12.37;;
10535;SDS011;5316;49.538;8.352;2024-03-02T01:06:00;17.33;;;12.40;;
10535;SDS011;5316;49.538;8.352;2024-03-02T01:08:27;15.03;;;12.27;;
10535;SDS011;5316;49.538;8.352;2024-03-02T01:10:54;14.87;;;12.53;;
10535;SDS011;5316;49.538;8.352;2024-03-02T01:13:22;16.23;;;13.20;;
10535;SDS011;5316;49.538;8.352;2024-03-02T01:15:49;16.70;;;12.90;;
10535;SDS011;5316;49.538;8.352;2024-03-02T01:18:16;17.40;;;13.60;;
10535;SDS011;5316;49.538;8.352;2024-03-02T01:20:42;16.67;;;13.43;;
10535;SDS011;5316;49.538;8.352;2024-03-02T01:23:08;16.87;;;13.30;;
10535;SDS011;5316;49.538;8.352;2024-03-02T01:25:35;17.97;;;13.57;;
10535;SDS011;5316;49.538;8.352;2024-03-02T01:28:01;17.87;;;13.83;;
10535;SDS011;5316;49.538;8.352;2024-03-02T01:30:30;18.77;;;12.67;;
10535;SDS011;5316;49.538;8.352;2024-03-02T01:32:57;16.67;;;12.93;;
10535;SDS011;5316;49.538;8.352;2024-03-02T01:35:25;17.93;;;13.70;;
10535;SDS011;5316;49.538;8.352;2024-03-02T01:37:52;16.07;;;13.27;;
10535;SDS011;5316;49.538;8.352;2024-03-02T01:40:19;17.90;;;13.63;;
10535;SDS011;5316;49.538;8.352;2024-03-02T01:42:46;19.93;;;13.20;;
10535;SDS011;5316;49.538;8.352;2024-03-02T01:45:12;17.30;;;13.13;;
10535;SDS011;5316;49.538;8.352;2024-03-02T01:47:40;14.30;;;12.07;;
10535;SDS011;5316;49.538;8.352;2024-03-02T01:50:07;15.60;;;12.37;;
10535;SDS011;5316;49.538;8.352;2024-03-02T01:52:36;16.30;;;12.70;;
10535;SDS011;5316;49.538;8.352;2024-03-02T01:55:03;16.53;;;12.90;;
10535;SDS011;5316;49.538;8.352;2024-03-02T01:57:31;17.47;;;12.30;;
10535;SDS011;5316;49.538;8.352;2024-03-02T01:59:57;16.30;;;12.17;;
10535;SDS011;5316;49.538;8.352;2024-03-02T02:02:24;16.40;;;12.60;;
10535;SDS011;5316;49.538;8.352;2024-03-02T02:04:52;16.23;;;11.97;;
10535;SDS011;5316;49.538;8.352;2024-03-02T02:07:19;17.07;;;12.80;;
10535;SDS011;5316;49.538;8.352;2024-03-02T02:09:46;14.97;;;12.10;;
10535;SDS011;5316;49.538;8.352;2024-03-02T02:12:12;15.60;;;11.43;;
10535;SDS011;5316;49.538;8.352;2024-03-02T02:14:46;16.83;;;11.37;;
10535;SDS011;5316;49.538;8.352;2024-03-02T02:17:13;14.63;;;11.50;;
10535;SDS011;5316;49.538;8.352;2024-03-02T02:19:40;14.73;;;11.33;;
10535;SDS011;5316;49.538;8.352;2024-03-02T02:22:08;13.47;;;11.20;;
10535;SDS011;5316;49.538;8.352;2024-03-02T02:24:35;15.33;;;11.70;;
10535;SDS011;5316;49.538;8.352;2024-03-02T02:27:05;13.47;;;11.03;;
10535;SDS011;5316;49.538;8.352;2024-03-02T02:29:32;12.47;;;10.17;;
10535;SDS011;5316;49.538;8.352;2024-03-02T02:31:58;13.27;;;11.33;;
10535;SDS011;5316;49.538;8.352;2024-03-02T02:34:25;15.83;;;11.40;;
10535;SDS011;5316;49.538;8.352;2024-03-02T02:36:52;13.87;;;11.27;;
10535;SDS011;5316;49.538;8.352;2024-03-02T02:39:22;15.17;;;11.33;;
10535;SDS011;5316;49.538;8.352;2024-03-02T02:41:49;15.17;;;11.13;;
10535;SDS011;5316;49.538;8.352;2024-03-02T02:44:15;13.10;;;11.17;;
10535;SDS011;5316;49.538;8.352;2024-03-02T02:46:42;15.27;;;11.07;;
10535;SDS011;5316;49.538;8.352;2024-03-02T02:49:09;16.83;;;11.23;;
10535;SDS011;5316;49.538;8.352;2024-03-02T02:51:35;17.70;;;11.43;;
10535;SDS011;5316;49.538;8.352;2024-03-02T02:54:02;15.03;;;11.33;;
10535;SDS011;5316;49.538;8.352;2024-03-02T02:56:30;14.10;;;11.97;;
10535;SDS011;5316;49.538;8.352;2024-03-02T02:58:57;14.00;;;11.33;;
10535;SDS011;5316;49.538;8.352;2024-03-02T03:01:24;16.07;;;11.63;;
10535;SDS011;5316;49.538;8.352;2024-03-02T03:03:51;15.07;;;11.73;;
10535;SDS011;5316;49.538;8.352;2024-03-02T03:06:18;14.00;;;11.03;;
10535;SDS011;5316;49.538;8.352;2024-03-02T03:08:45;14.80;;;11.77;;
10535;SDS011;5316;49.538;8.352;2024-03-02T03:11:11;11.73;;;10.50;;
10535;SDS011;5316;49.538;8.352;2024-03-02T03:13:40;11.43;;;9.97;;
10535;SDS011;5316;49.538;8.352;2024-03-02T03:16:07;12.27;;;10.37;;
10535;SDS011;5316;49.538;8.352;2024-03-02T03:18:34;15.13;;;11.07;;
10535;SDS011;5316;49.538;8.352;2024-03-02T03:21:01;13.47;;;10.40;;
10535;SDS011;5316;49.538;8.352;2024-03-02T03:23:28;12.60;;;10.30;;
10535;SDS011;5316;49.538;8.352;2024-03-02T03:25:54;13.27;;;10.13;;
10535;SDS011;5316;49.538;8.352;2024-03-02T03:28:21;12.50;;;10.73;;
10535;SDS011;5316;49.538;8.352;2024-03-02T03:30:49;13.73;;;10.20;;
10535;SDS011;5316;49.538;8.352;2024-03-02T03:33:16;12.07;;;9.83;;
10535;SDS011;5316;49.538;8.352;2024-03-02T03:35:43;12.80;;;9.73;;
10535;SDS011;5316;49.538;8.352;2024-03-02T03:38:09;11.80;;;9.37;;
10535;SDS011;5316;49.538;8.352;2024-03-02T03:40:36;11.60;;;9.80;;
10535;SDS011;5316;49.538;8.352;2024-03-02T03:43:03;12.57;;;9.83;;
10535;SDS011;5316;49.538;8.352;2024-03-02T03:45:30;13.70;;;11.20;;
10535;SDS011;5316;49.538;8.352;2024-03-02T03:47:58;12.73;;;10.27;;
10535;SDS011;5316;49.538;8.352;2024-03-02T03:50:24;11.90;;;9.67;;
10535;SDS011;5316;49.538;8.352;2024-03-02T03:52:51;13.90;;;10.47;;
10535;SDS011;5316;49.538;8.352;2024-03-02T03:55:18;13.93;;;9.93;;
10535;SDS011;5316;49.538;8.352;2024-03-02T03:57:44;13.13;;;10.00;;
10535;SDS011;5316;49.538;8.352;2024-03-02T04:00:12;12.67;;;10.10;;
10535;SDS011;5316;49.538;8.352;2024-03-02T04:02:39;14.67;;;10.23;;
10535;SDS011;5316;49.538;8.352;2024-03-02T04:05:07;14.17;;;10.47;;
10535;SDS011;5316;49.538;8.352;2024-03-02T04:07:35;12.37;;;9.97;;
10535;SDS011;5316;49.538;8.352;2024-03-02T04:10:06;13.60;;;10.10;;
10535;SDS011;5316;49.538;8.352;2024-03-02T04:12:34;12.87;;;10.90;;
10535;SDS011;5316;49.538;8.352;2024-03-02T04:15:01;12.57;;;10.00;;
10535;SDS011;5316;49.538;8.352;2024-03-02T04:17:29;11.77;;;10.20;;
10535;SDS011;5316;49.538;8.352;2024-03-02T04:19:57;11.20;;;9.70;;
10535;SDS011;5316;49.538;8.352;2024-03-02T04:22:25;14.03;;;10.63;;
10535;SDS011;5316;49.538;8.352;2024-03-02T04:24:52;13.43;;;10.37;;
10535;SDS011;5316;49.538;8.352;2024-03-02T04:27:19;14.43;;;10.47;;
10535;SDS011;5316;49.538;8.352;2024-03-02T04:29:46;13.73;;;11.50;;
10535;SDS011;5316;49.538;8.352;2024-03-02T04:32:13;26.50;;;18.50;;
10535;SDS011;5316;49.538;8.352;2024-03-02T04:34:39;12.93;;;11.13;;
10535;SDS011;5316;49.538;8.352;2024-03-02T04:37:06;13.63;;;10.50;;
10535;SDS011;5316;49.538;8.352;2024-03-02T04:39:35;10.63;;;9.20;;
10535;SDS011;5316;49.538;8.352;2024-03-02T04:42:02;10.73;;;8.37;;
10535;SDS011;5316;49.538;8.352;2024-03-02T04:44:29;12.10;;;9.67;;
10535;SDS011;5316;49.538;8.352;2024-03-02T04:46:55;10.47;;;9.20;;
10535;SDS011;5316;49.538;8.352;2024-03-02T04:49:22;12.37;;;8.90;;
10535;SDS011;5316;49.538;8.352;2024-03-02T04:51:49;13.23;;;9.00;;
10535;SDS011;5316;49.538;8.352;2024-03-02T04:54:16;9.90;;;8.90;;
10535;SDS011;5316;49.538;8.352;2024-03-02T04:56:44;10.50;;;9.30;;
10535;SDS011;5316;49.538;8.352;2024-03-02T04:59:14;11.37;;;8.80;;
10535;SDS011;5316;49.538;8.352;2024-03-02T05:01:41;12.27;;;9.53;;
10535;SDS011;5316;49.538;8.352;2024-03-02T05:04:08;10.97;;;9.53;;
10535;SDS011;5316;49.538;8.352;2024-03-02T05:06:36;11.70;;;9.53;;
10535;SDS011;5316;49.538;8.352;2024-03-02T05:09:04;13.77;;;9.83;;
10535;SDS011;5316;49.538;8.352;2024-03-02T05:11:31;10.90;;;9.63;;
10535;SDS011;5316;49.538;8.352;2024-03-02T05:14:17;10.73;;;8.80;;
10535;SDS011;5316;49.538;8.352;2024-03-02T05:16:43;15.70;;;12.47;;
10535;SDS011;5316;49.538;8.352;2024-03-02T05:19:10;13.40;;;10.33;;
10535;SDS011;5316;49.538;8.352;2024-03-02T05:21:37;14.73;;;11.33;;
10535;SDS011;5316;49.538;8.352;2024-03-02T05:24:03;11.17;;;9.17;;
10535;SDS011;5316;49.538;8.352;2024-03-02T05:26:30;11.97;;;9.60;;
10535;SDS011;5316;49.538;8.352;2024-03-02T05:28:57;10.13;;;8.90;;
10535;SDS011;5316;49.538;8.352;2024-03-02T05:31:25;13.20;;;9.67;;
10535;SDS011;5316;49.538;8.352;2024-03-02T05:33:52;12.43;;;10.03;;
10535;SDS011;5316;49.538;8.352;2024-03-02T05:36:18;12.33;;;9.97;;
10535;SDS011;5316;49.538;8.352;2024-03-02T05:38:46;12.83;;;9.90;;
10535;SDS011;5316;49.538;8.352;2024-03-02T05:41:12;11.57;;;9.53;;
10535;SDS011;5316;49.538;8.352;2024-03-02T05:43:39;10.57;;;9.47;;
10535;SDS011;5316;49.538;8.352;2024-03-02T05:46:06;11.20;;;9.63;;
10535;SDS011;5316;49.538;8.352;2024-03-02T05:48:34;11.67;;;9.50;;
10535;SDS011;5316;49.538;8.352;2024-03-02T05:51:00;11.07;;;9.63;;
10535;SDS011;5316;49.538;8.352;2024-03-02T05:53:27;13.23;;;10.00;;
10535;SDS011;5316;49.538;8.352;2024-03-02T05:55:54;12.30;;;9.73;;
10535;SDS011;5316;49.538;8.352;2024-03-02T05:58:21;12.17;;;9.67;;
10535;SDS011;5316;49.538;8.352;2024-03-02T06:00:58;13.47;;;10.13;;
10535;SDS011;5316;49.538;8.352;2024-03-02T06:03:25;13.03;;;10.30;;
10535;SDS011;5316;49.538;8.352;2024-03-02T06:05:54;12.87;;;10.30;;
10535;SDS011;5316;49.538;8.352;2024-03-02T06:08:21;12.23;;;9.70;;
10535;SDS011;5316;49.538;8.352;2024-03-02T06:10:48;11.17;;;9.53;;
10535;SDS011;5316;49.538;8.352;2024-03-02T06:13:15;12.90;;;9.80;;
10535;SDS011;5316;49.538;8.352;2024-03-02T06:15:41;11.40;;;10.20;;
10535;SDS011;5316;49.538;8.352;2024-03-02T06:18:08;12.87;;;10.30;;
10535;SDS011;5316;49.538;8.352;2024-03-02T06:20:35;11.23;;;9.10;;
10535;SDS011;5316;49.538;8.352;2024-03-02T06:23:03;12.00;;;10.43;;
10535;SDS011;5316;49.538;8.352;2024-03-02T06:25:30;14.87;;;10.80;;
10535;SDS011;5316;49.538;8.352;2024-03-02T06:27:57;12.90;;;10.17;;
10535;SDS011;5316;49.538;8.352;2024-03-02T06:30:23;14.43;;;10.73;;
10535;SDS011;5316;49.538;8.352;2024-03-02T06:32:50;12.70;;;9.57;;
10535;SDS011;5316;49.538;8.352;2024-03-02T06:35:17;13.70;;;9.70;;
10535;SDS011;5316;49.538;8.352;2024-03-02T06:37:44;10.57;;;9.47;;
10535;SDS011;5316;49.538;8.352;2024-03-02T06:40:12;12.37;;;9.67;;
10535;SDS011;5316;49.538;8.352;2024-03-02T06:42:39;11.80;;;10.33;;
10535;SDS011;5316;49.538;8.352;2024-03-02T06:45:06;13.33;;;10.60;;
10535;SDS011;5316;49.538;8.352;2024-03-02T06:47:33;15.33;;;10.87;;
10535;SDS011;5316;49.538;8.352;2024-03-02T06:49:59;13.43;;;10.53;;
10535;SDS011;5316;49.538;8.352;2024-03-02T06:52:26;12.67;;;10.13;;
10535;SDS011;5316;49.538;8.352;2024-03-02T06:54:53;13.90;;;11.03;;
10535;SDS011;5316;49.538;8.352;2024-03-02T06:57:21;13.93;;;10.97;;
10535;SDS011;5316;49.538;8.352;2024-03-02T06:59:49;14.40;;;11.10;;
10535;SDS011;5316;49.538;8.352;2024-03-02T07:02:19;12.53;;;10.77;;
10535;SDS011;5316;49.538;8.352;2024-03-02T07:04:45;14.37;;;10.93;;
10535;SDS011;5316;49.538;8.352;2024-03-02T07:07:12;14.63;;;11.10;;
10535;SDS011;5316;49.538;8.352;2024-03-02T07:09:39;12.67;;;10.90;;
10535;SDS011;5316;49.538;8.352;2024-03-02T07:12:06;13.40;;;10.90;;
10535;SDS011;5316;49.538;8.352;2024-03-02T07:14:34;11.87;;;10.27;;
10535;SDS011;5316;49.538;8.352;2024-03-02T07:17:19;12.60;;;10.83;;
10535;SDS011;5316;49.538;8.352;2024-03-02T07:19:45;13.03;;;10.70;;
10535;SDS011;5316;49.538;8.352;2024-03-02T07:22:12;14.00;;;10.90;;
10535;SDS011;5316;49.538;8.352;2024-03-02T07:24:39;12.37;;;10.47;;
10535;SDS011;5316;49.538;8.352;2024-03-02T07:27:07;11.80;;;10.60;;
10535;SDS011;5316;49.538;8.352;2024-03-02T07:29:35;13.43;;;10.80;;
10535;SDS011;5316;49.538;8.352;2024-03-02T07:32:02;14.27;;;11.37;;
10535;SDS011;5316;49.538;8.352;2024-03-02T07:34:29;13.63;;;10.87;;
10535;SDS011;5316;49.538;8.352;2024-03-02T07:36:56;12.50;;;10.60;;
10535;SDS011;5316;49.538;8.352;2024-03-02T07:39:23;12.57;;;10.97;;
10535;SDS011;5316;49.538;8.352;2024-03-02T07:41:50;12.63;;;10.17;;
10535;SDS011;5316;49.538;8.352;2024-03-02T07:44:17;14.63;;;10.20;;
10535;SDS011;5316;49.538;8.352;2024-03-02T07:46:46;11.67;;;9.50;;
10535;SDS011;5316;49.538;8.352;2024-03-02T07:49:14;13.17;;;9.77;;
10535;SDS011;5316;49.538;8.352;2024-03-02T07:51:41;11.70;;;10.17;;
10535;SDS011;5316;49.538;8.352;2024-03-02T07:54:08;14.03;;;10.67;;
10535;SDS011;5316;49.538;8.352;2024-03-02T07:56:35;12.87;;;10.57;;
10535;SDS011;5316;49.538;8.352;2024-03-02T07:59:02;11.53;;;9.67;;
10535;SDS011;5316;49.538;8.352;2024-03-02T08:01:29;12.47;;;10.10;;
10535;SDS011;5316;49.538;8.352;2024-03-02T08:03:59;11.97;;;9.97;;
10535;SDS011;5316;49.538;8.352;2024-03-02T08:06:28;11.30;;;9.47;;
10535;SDS011;5316;49.538;8.352;2024-03-02T08:08:55;11.47;;;10.30;;
10535;SDS011;5316;49.538;8.352;2024-03-02T08:11:22;11.37;;;10.03;;
10535;SDS011;5316;49.538;8.352;2024-03-02T08:13:49;12.30;;;10.07;;
10535;SDS011;5316;49.538;8.352;2024-03-02T08:16:17;12.00;;;10.00;;
10535;SDS011;5316;49.538;8.352;2024-03-02T08:18:44;12.17;;;10.80;;
10535;SDS011;5316;49.538;8.352;2024-03-02T08:21:13;12.33;;;9.83;;
10535;SDS011;5316;49.538;8.352;2024-03-02T08:23:40;12.50;;;10.10;;
10535;SDS011;5316;49.538;8.352;2024-03-02T08:26:07;10.47;;;9.37;;
10535;SDS011;5316;49.538;8.352;2024-03-02T08:28:34;13.63;;;9.90;;
10535;SDS011;5316;49.538;8.352;2024-03-02T08:31:02;9.67;;;8.67;;
10535;SDS011;5316;49.538;8.352;2024-03-02T08:33:29;10.87;;;8.77;;
10535;SDS011;5316;49.538;8.352;2024-03-02T08:35:55;9.23;;;8.20;;
10535;SDS011;5316;49.538;8.352;2024-03-02T08:38:24;8.80;;;8.00;;
10535;SDS011;5316;49.538;8.352;2024-03-02T08:40:51;7.57;;;6.87;;
10535;SDS011;5316;49.538;8.352;2024-03-02T08:43:18;10.80;;;8.40;;
10535;SDS011;5316;49.538;8.352;2024-03-02T08:45:45;8.63;;;7.73;;
10535;SDS011;5316;49.538;8.352;2024-03-02T08:48:13;9.23;;;7.70;;
10535;SDS011;5316;49.538;8.352;2024-03-02T08:50:40;12.07;;;8.17;;
10535;SDS011;5316;49.538;8.352;2024-03-02T08:53:06;9.17;;;7.03;;
10535;SDS011;5316;49.538;8.352;2024-03-02T08:55:35;6.63;;;6.03;;
10535;SDS011;5316;49.538;8.352;2024-03-02T08:58:01;7.90;;;7.10;;
10535;SDS011;5316;49.538;8.352;2024-03-02T09:00:28;6.70;;;6.10;;
10535;SDS011;5316;49.538;8.352;2024-03-02T09:02:55;7.53;;;6.80;;
10535;SDS011;5316;49.538;8.352;2024-03-02T09:05:22;6.93;;;6.23;;
10535;SDS011;5316;49.538;8.352;2024-03-02T09:07:49;7.77;;;6.93;;
10535;SDS011;5316;49.538;8.352;2024-03-02T09:10:15;6.27;;;5.67;;
10535;SDS011;5316;49.538;8.352;2024-03-02T09:12:43;6.70;;;5.97;;
10535;SDS011;5316;49.538;8.352;2024-03-02T09:15:10;6.60;;;5.93;;
10535;SDS011;5316;49.538;8.352;2024-03-02T09:17:37;9.23;;;7.73;;
10535;SDS011;5316;49.538;8.352;2024-03-02T09:20:04;7.17;;;5.83;;
10535;SDS011;5316;49.538;8.352;2024-03-02T09:22:31;6.80;;;5.93;;
10535;SDS011;5316;49.538;8.352;2024-03-02T09:24:58;7.93;;;6.30;;
10535;SDS011;5316;49.538;8.352;2024-03-02T09:27:25;8.47;;;6.63;;
10535;SDS011;5316;49.538;8.352;2024-03-02T09:29:53;6.70;;;6.00;;
10535;SDS011;5316;49.538;8.352;2024-03-02T09:32:20;6.70;;;5.97;;
10535;SDS011;5316;49.538;8.352;2024-03-02T09:34:48;6.53;;;5.87;;
10535;SDS011;5316;49.538;8.352;2024-03-02T09:37:15;6.77;;;6.10;;
10535;SDS011;5316;49.538;8.352;2024-03-02T09:39:43;6.67;;;6.03;;
10535;SDS011;5316;49.538;8.352;2024-03-02T09:42:10;6.03;;;5.50;;
10535;SDS011;5316;49.538;8.352;2024-03-02T09:44:37;10.90;;;8.00;;
10535;SDS011;5316;49.538;8.352;2024-03-02T09:47:06;11.10;;;7.60;;
10535;SDS011;5316;49.538;8.352;2024-03-02T09:49:33;8.57;;;7.27;;
10535;SDS011;5316;49.538;8.352;2024-03-02T09:52:01;8.00;;;6.50;;
10535;SDS011;5316;49.538;8.352;2024-03-02T09:54:30;6.87;;;5.57;;
10535;SDS011;5316;49.538;8.352;2024-03-02T09:56:57;6.60;;;5.43;;
10535;SDS011;5316;49.538;8.352;2024-03-02T09:59:26;6.20;;;5.60;;
10535;SDS011;5316;49.538;8.352;2024-03-02T10:01:56;75.80;;;14.73;;
10535;SDS011;5316;49.538;8.352;2024-03-02T10:04:25;17.87;;;7.60;;
10535;SDS011;5316;49.538;8.352;2024-03-02T10:07:04;12.23;;;5.63;;
10535;SDS011;5316;49.538;8.352;2024-03-02T10:09:39;6.13;;;4.87;;
10535;SDS011;5316;49.538;8.352;2024-03-02T10:12:07;7.50;;;4.97;;
10535;SDS011;5316;49.538;8.352;2024-03-02T10:14:34;7.13;;;6.10;;
10535;SDS011;5316;49.538;8.352;2024-03-02T10:17:02;6.67;;;5.97;;
10535;SDS011;5316;49.538;8.352;2024-03-02T10:19:31;7.60;;;6.13;;
10535;SDS011;5316;49.538;8.352;2024-03-02T10:21:59;4.90;;;4.37;;
10535;SDS011;5316;49.538;8.352;2024-03-02T10:24:27;5.40;;;4.80;;
10535;SDS011;5316;49.538;8.352;2024-03-02T10:27:01;6.47;;;5.33;;
10535;SDS011;5316;49.538;8.352;2024-03-02T10:29:29;4.00;;;3.53;;
10535;SDS011;5316;49.538;8.352;2024-03-02T10:31:56;6.30;;;5.00;;
10535;SDS011;5316;49.538;8.352;2024-03-02T10:34:24;6.97;;;4.83;;
10535;SDS011;5316;49.538;8.352;2024-03-02T10:36:52;7.37;;;5.77;;
10535;SDS011;5316;49.538;8.352;2024-03-02T10:39:20;5.00;;;4.37;;
10535;SDS011;5316;49.538;8.352;2024-03-02T10:41:47;4.73;;;4.23;;
10535;SDS011;5316;49.538;8.352;2024-03-02T10:44:18;26.43;;;19.27;;
10535;SDS011;5316;49.538;8.352;2024-03-02T10:46:45;8.23;;;6.20;;
10535;SDS011;5316;49.538;8.352;2024-03-02T10:49:13;4.77;;;4.27;;
10535;SDS011;5316;49.538;8.352;2024-03-02T10:51:40;7.20;;;4.50;;
10535;SDS011;5316;49.538;8.352;2024-03-02T10:54:08;4.67;;;3.77;;
10535;SDS011;5316;49.538;8.352;2024-03-02T10:56:38;4.43;;;4.03;;
10535;SDS011;5316;49.538;8.352;2024-03-02T10:59:06;3.70;;;3.47;;
10535;SDS011;5316;49.538;8.352;2024-03-02T11:01:43;10.83;;;7.83;;
10535;SDS011;5316;49.538;8.352;2024-03-02T11:04:15;5.73;;;5.23;;
10535;SDS011;5316;49.538;8.352;2024-03-02T11:06:44;8.50;;;6.80;;
10535;SDS011;5316;49.538;8.352;2024-03-02T11:09:16;4.73;;;3.60;;
10535;SDS011;5316;49.538;8.352;2024-03-02T11:11:47;3.47;;;3.17;;
10535;SDS011;5316;49.538;8.352;2024-03-02T11:14:26;4.13;;;3.73;;
10535;SDS011;5316;49.538;8.352;2024-03-02T11:16:56;4.63;;;3.50;;
10535;SDS011;5316;49.538;8.352;2024-03-02T11:19:23;4.27;;;3.97;;
10535;SDS011;5316;49.538;8.352;2024-03-02T11:21:50;4.70;;;4.30;;
10535;SDS011;5316;49.538;8.352;2024-03-02T11:24:34;7.13;;;6.40;;
10535;SDS011;5316;49.538;8.352;2024-03-02T11:27:01;5.67;;;4.97;;
10535;SDS011;5316;49.538;8.352;2024-03-02T11:29:43;4.83;;;4.37;;
10535;SDS011;5316;49.538;8.352;2024-03-02T11:32:17;4.33;;;3.87;;
10535;SDS011;5316;49.538;8.352;2024-03-02T11:34:48;4.23;;;3.93;;
10535;SDS011;5316;49.538;8.352;2024-03-02T11:37:16;4.47;;;4.07;;
10535;SDS011;5316;49.538;8.352;2024-03-02T11:39:46;6.33;;;4.40;;
10535;SDS011;5316;49.538;8.352;2024-03-02T11:42:15;4.30;;;3.90;;
10535;SDS011;5316;49.538;8.352;2024-03-02T11:44:42;5.00;;;3.80;;
10535;SDS011;5316;49.538;8.352;2024-03-02T11:47:11;4.47;;;3.63;;
10535;SDS011;5316;49.538;8.352;2024-03-02T11:49:43;2.80;;;2.60;;
10535;SDS011;5316;49.538;8.352;2024-03-02T11:52:12;3.20;;;2.63;;
10535;SDS011;5316;49.538;8.352;2024-03-02T11:54:40;3.10;;;2.90;;
10535;SDS011;5316;49.538;8.352;2024-03-02T11:57:13;3.00;;;2.10;;
10535;SDS011;5316;49.538;8.352;2024-03-02T11:59:41;2.37;;;2.17;;
10535;SDS011;5316;49.538;8.352;2024-03-02T12:02:12;2.03;;;1.83;;
10535;SDS011;5316;49.538;8.352;2024-03-02T12:04:42;2.13;;;1.60;;
10535;SDS011;5316;49.538;8.352;2024-03-02T12:07:10;1.70;;;1.60;;
10535;SDS011;5316;49.538;8.352;2024-03-02T12:09:37;6.60;;;5.47;;
10535;SDS011;5316;49.538;8.352;2024-03-02T12:12:04;2.73;;;2.53;;
10535;SDS011;5316;49.538;8.352;2024-03-02T12:14:34;2.87;;;1.97;;
10535;SDS011;5316;49.538;8.352;2024-03-02T12:17:02;1.50;;;1.37;;
10535;SDS011;5316;49.538;8.352;2024-03-02T12:19:30;1.23;;;1.20;;
10535;SDS011;5316;49.538;8.352;2024-03-02T12:21:57;1.27;;;1.10;;
10535;SDS011;5316;49.538;8.352;2024-03-02T12:24:26;1.37;;;1.10;;
10535;SDS011;5316;49.538;8.352;2024-03-02T12:26:54;2.17;;;1.10;;
10535;SDS011;5316;49.538;8.352;2024-03-02T12:29:21;2.07;;;1.30;;
10535;SDS011;5316;49.538;8.352;2024-03-02T12:31:50;1.67;;;1.27;;
10535;SDS011;5316;49.538;8.352;2024-03-02T12:34:18;2.17;;;1.90;;
10535;SDS011;5316;49.538;8.352;2024-03-02T12:36:45;1.47;;;1.37;;
10535;SDS011;5316;49.538;8.352;2024-03-02T12:39:14;1.23;;;1.20;;
10535;SDS011;5316;49.538;8.352;2024-03-02T12:41:41;1.70;;;1.60;;
10535;SDS011;5316;49.538;8.352;2024-03-02T12:44:08;1.60;;;1.50;;
10535;SDS011;5316;49.538;8.352;2024-03-02T12:46:35;1.10;;;1.10;;
10535;SDS011;5316;49.538;8.352;2024-03-02T12:49:07;1.10;;;0.97;;
10535;SDS011;5316;49.538;8.352;2024-03-02T12:51:35;0.90;;;0.90;;
10535;SDS011;5316;49.538;8.352;2024-03-02T12:54:02;1.30;;;1.20;;
10535;SDS011;5316;49.538;8.352;2024-03-02T12:56:30;1.00;;;1.00;;
10535;SDS011;5316;49.538;8.352;2024-03-02T12:58:57;1.33;;;0.93;;
10535;SDS011;5316;49.538;8.352;2024-03-02T13:01:24;1.20;;;1.10;;
10535;SDS011;5316;49.538;8.352;2024-03-02T13:03:52;0.80;;;0.80;;
10535;SDS011;5316;49.538;8.352;2024-03-02T13:06:21;0.90;;;0.80;;
10535;SDS011;5316;49.538;8.352;2024-03-02T13:08:49;0.50;;;0.50;;
10535;SDS011;5316;49.538;8.352;2024-03-02T13:11:16;0.70;;;0.70;;
10535;SDS011;5316;49.538;8.352;2024-03-02T13:13:42;1.00;;;0.90;;
10535;SDS011;5316;49.538;8.352;2024-03-02T13:16:09;1.60;;;0.70;;
10535;SDS011;5316;49.538;8.352;2024-03-02T13:18:38;1.87;;;0.63;;
10535;SDS011;5316;49.538;8.352;2024-03-02T13:21:05;0.60;;;0.60;;
10535;SDS011;5316;49.538;8.352;2024-03-02T13:23:34;0.60;;;0.60;;
10535;SDS011;5316;49.538;8.352;2024-03-02T13:26:16;0.87;;;0.50;;
10535;SDS011;5316;49.538;8.352;2024-03-02T13:28:43;0.50;;;0.50;;
10535;SDS011;5316;49.538;8.352;2024-03-02T13:31:09;0.83;;;0.60;;
10535;SDS011;5316;49.538;8.352;2024-03-02T13:33:37;0.43;;;0.43;;
10535;SDS011;5316;49.538;8.352;2024-03-02T13:36:04;0.70;;;0.70;;
10535;SDS011;5316;49.538;8.352;2024-03-02T13:38:31;0.70;;;0.70;;
10535;SDS011;5316;49.538;8.352;2024-03-02T13:44:21;0.50;;;0.50;;
10535;SDS011;5316;49.538;8.352;2024-03-02T13:46:48;0.93;;;0.50;;
10535;SDS011;5316;49.538;8.352;2024-03-02T13:49:16;0.70;;;0.70;;
10535;SDS011;5316;49.538;8.352;2024-03-02T13:51:43;2.33;;;1.70;;
10535;SDS011;5316;49.538;8.352;2024-03-02T13:54:10;1.90;;;1.40;;
10535;SDS011;5316;49.538;8.352;2024-03-02T13:56:37;0.70;;;0.70;;
10535;SDS011;5316;49.538;8.352;2024-03-02T13:59:05;0.60;;;0.60;;
10535;SDS011;5316;49.538;8.352;2024-03-02T14:01:48;1.40;;;0.70;;
10535;SDS011;5316;49.538;8.352;2024-03-02T14:04:15;1.17;;;0.70;;
10535;SDS011;5316;49.538;8.352;2024-03-02T14:06:42;0.70;;;0.70;;
10535;SDS011;5316;49.538;8.352;2024-03-02T14:09:09;0.77;;;0.60;;
10535;SDS011;5316;49.538;8.352;2024-03-02T14:11:36;0.90;;;0.70;;
10535;SDS011;5316;49.538;8.352;2024-03-02T14:14:02;0.68;;;0.65;;
10535;SDS011;5316;49.538;8.352;2024-03-02T14:16:29;0.60;;;0.57;;
10535;SDS011;5316;49.538;8.352;2024-03-02T14:18:57;0.73;;;0.73;;
10535;SDS011;5316;49.538;8.352;2024-03-02T14:21:24;0.60;;;0.60;;
10535;SDS011;5316;49.538;8.352;2024-03-02T14:23:51;0.60;;;0.60;;
10535;SDS011;5316;49.538;8.352;2024-03-02T14:26:18;0.65;;;0.65;;
10535;SDS011;5316;49.538;8.352;2024-03-02T14:28:44;0.68;;;0.68;;
10535;SDS011;5316;49.538;8.352;2024-03-02T14:31:11;1.45;;;1.35;;
10535;SDS011;5316;49.538;8.352;2024-03-02T14:33:38;0.70;;;0.68;;
10535;SDS011;5316;49.538;8.352;2024-03-02T14:36:14;3.05;;;0.80;;
10535;SDS011;5316;49.538;8.352;2024-03-02T14:38:42;1.50;;;0.88;;
10535;SDS011;5316;49.538;8.352;2024-03-02T14:41:08;1.30;;;1.20;;
10535;SDS011;5316;49.538;8.352;2024-03-02T14:43:37;0.90;;;0.85;;
10535;SDS011;5316;49.538;8.352;2024-03-02T14:46:03;1.67;;;1.10;;
10535;SDS011;5316;49.538;8.352;2024-03-02T14:48:30;1.33;;;1.30;;
10535;SDS011;5316;49.538;8.352;2024-03-02T14:50:57;2.20;;;1.25;;
10535;SDS011;5316;49.538;8.352;2024-03-02T14:53:25;1.27;;;1.20;;
10535;SDS011;5316;49.538;8.352;2024-03-02T14:55:52;1.40;;;1.30;;